Time;durP1;ratioP1;P1;durP2;ratioP2;P2;SDS_P1;SDS_P2;PMS_P1;PMS_P2;Temp;Humidity;BMP_temperature;BMP_pressure;BME280_temperature;BME280_humidity;BME280_pressure;Samples;Min_cycle;Max_cycle;Signal;HPM_P1;HPM_P2
2024/04/05 00:02:19;;;;;;;5.40;2.53;;;;;;;16.51;62.70;97416.84;5041871;28;20229;-71
2024/04/05 00:04:45;;;;;;;7.00;1.77;;;;;;;16.53;62.64;97410.38;5041006;28;20192;-70
2024/04/05 00:07:11;;;;;;;3.17;1.97;;;;;;;16.54;62.29;97411.19;5036176;28;20179;-71
2024/04/05 00:09:39;;;;;;;4.90;2.00;;;;;;;16.51;62.27;97407.09;4996182;28;20785;-72
2024/04/05 00:12:05;;;;;;;4.67;2.43;;;;;;;16.52;62.61;97419.31;5049698;28;20202;-72
2024/04/05 00:14:31;;;;;;;3.57;1.80;;;;;;;16.56;62.89;97414.47;5041378;28;20446;-72
2024/04/05 00:16:56;;;;;;;5.33;2.00;;;;;;;16.50;62.74;97416.03;5034984;28;20298;-71
2024/04/05 00:19:21;;;;;;;4.43;2.03;;;;;;;16.47;62.90;97421.69;5028142;28;20199;-72
2024/04/05 00:21:47;;;;;;;6.53;2.40;;;;;;;16.50;62.90;97417.88;5031842;28;20714;-72
2024/04/05 00:24:12;;;;;;;2.40;1.43;;;;;;;16.52;62.67;97413.19;5029514;28;20652;-71
2024/04/05 00:26:38;;;;;;;4.43;2.00;;;;;;;16.48;62.26;97409.31;5030027;28;20183;-72
2024/04/05 00:29:03;;;;;;;3.30;1.80;;;;;;;16.51;62.30;97412.38;5047337;28;20310;-72
2024/04/05 00:31:29;;;;;;;7.03;1.70;;;;;;;16.54;62.57;97400.59;5025289;28;20183;-73
2024/04/05 00:33:54;;;;;;;3.57;1.87;;;;;;;16.55;62.31;97397.78;5029549;28;20207;-72
2024/04/05 00:36:20;;;;;;;6.20;2.20;;;;;;;16.54;62.26;97400.59;5030090;28;20180;-72
2024/04/05 00:38:45;;;;;;;3.17;1.90;;;;;;;16.57;62.28;97402.88;5020987;28;20719;-71
2024/04/05 00:41:11;;;;;;;3.73;1.83;;;;;;;16.57;62.60;97405.53;5026882;28;20185;-72
2024/04/05 00:43:36;;;;;;;6.20;2.20;;;;;;;16.61;62.58;97400.69;5021508;28;20259;-72
2024/04/05 00:46:03;;;;;;;3.50;2.13;;;;;;;16.53;62.80;97399.81;5035684;28;20270;-71
2024/04/05 00:48:29;;;;;;;5.17;1.80;;;;;;;16.54;62.94;97395.31;5036499;28;20236;-73
2024/04/05 00:50:55;;;;;;;5.23;2.73;;;;;;;16.50;62.96;97392.22;5031005;28;20908;-73
2024/04/05 00:53:40;;;;;;;4.17;1.70;;;;;;;16.48;63.33;97396.06;5034588;28;20181;-72
2024/04/05 00:56:05;;;;;;;5.27;1.90;;;;;;;16.54;63.24;97392.66;5028735;28;20454;-72
2024/04/05 00:58:31;;;;;;;5.97;2.10;;;;;;;16.52;63.01;97390.22;5026822;28;21056;-71
2024/04/05 01:00:56;;;;;;;3.00;1.57;;;;;;;16.51;62.86;97385.09;5027423;28;20237;-71
2024/04/05 01:03:22;;;;;;;2.60;1.57;;;;;;;16.51;62.74;97380.66;5026299;28;20188;-72
2024/04/05 01:05:48;;;;;;;5.30;1.67;;;;;;;16.50;62.44;97379.00;5034591;28;20199;-72
2024/04/05 01:08:14;;;;;;;2.73;1.70;;;;;;;16.55;62.36;97375.78;5029652;28;20190;-71
2024/04/05 01:10:43;;;;;;;5.83;1.50;;;;;;;16.56;62.13;97372.97;5029091;28;20446;-73
2024/04/05 01:13:10;;;;;;;4.80;1.70;;;;;;;16.43;62.01;97381.56;5030244;28;20536;-73
2024/04/05 01:15:36;;;;;;;4.80;2.37;;;;;;;16.40;62.54;97387.22;5031810;28;20442;-72
2024/04/05 01:18:04;;;;;;;2.77;1.50;;;;;;;16.46;62.05;97383.00;5028468;28;20465;-70
2024/04/05 01:20:32;;;;;;;5.90;2.00;;;;;;;16.45;62.23;97385.84;5025168;28;20235;-71
2024/04/05 01:23:05;;;;;;;3.90;1.70;;;;;;;16.42;62.30;97387.06;5026008;28;20439;-69
2024/04/05 01:25:31;;;;;;;4.40;1.83;;;;;;;16.40;62.44;97392.50;5023329;28;20430;-71
2024/04/05 01:27:57;;;;;;;3.67;2.03;;;;;;;16.43;62.58;97392.16;5028704;28;20472;-71
2024/04/05 01:30:23;;;;;;;3.73;1.90;;;;;;;16.46;62.72;97388.31;5036474;28;20446;-70
2024/04/05 01:33:01;;;;;;;3.67;1.80;;;;;;;16.50;62.45;97386.13;5029785;28;20187;-72
2024/04/05 01:35:27;;;;;;;5.67;1.70;;;;;;;16.52;62.32;97392.88;5022501;28;20422;-72
2024/04/05 01:37:53;;;;;;;2.97;1.57;;;;;;;16.53;62.14;97388.38;5028097;28;20553;-72
2024/04/05 01:40:19;;;;;;;4.63;2.07;;;;;;;16.52;62.45;97384.94;5033053;28;20474;-73
2024/04/05 01:42:44;;;;;;;2.60;1.60;;;;;;;16.54;62.51;97379.44;5024146;28;20839;-76
2024/04/05 01:45:10;;;;;;;4.87;1.90;;;;;;;16.49;62.70;97376.56;5029196;28;20183;-72
2024/04/05 01:47:35;;;;;;;5.10;1.90;;;;;;;16.50;62.73;97367.63;5029898;28;20188;-72
2024/04/05 01:50:02;;;;;;;3.80;1.67;;;;;;;16.49;62.60;97369.41;5027440;28;20314;-72
2024/04/05 01:52:27;;;;;;;3.43;1.60;;;;;;;16.49;62.63;97369.41;5030508;28;20187;-72
2024/04/05 01:54:54;;;;;;;3.33;1.90;;;;;;;16.48;62.80;97372.25;5028368;28;20418;-71
2024/04/05 01:57:20;;;;;;;5.37;1.60;;;;;;;16.46;62.85;97368.97;5019590;28;20210;-70
2024/04/05 01:59:49;;;;;;;3.37;1.77;;;;;;;16.46;63.00;97363.69;5035363;28;20445;-71
2024/04/05 02:02:15;;;;;;;4.17;2.00;;;;;;;16.39;63.07;97367.06;5029152;28;20183;-69
2024/04/05 02:04:41;;;;;;;5.73;2.07;;;;;;;16.41;63.09;97358.97;5030735;28;20798;-73
2024/04/05 02:07:06;;;;;;;4.77;2.10;;;;;;;16.36;63.05;97356.88;5036078;28;20176;-73
2024/04/05 02:09:31;;;;;;;3.33;1.83;;;;;;;16.28;63.35;97357.81;5029999;28;20215;-71
2024/04/05 02:11:58;;;;;;;3.93;1.83;;;;;;;16.26;63.44;97348.38;5027508;28;20207;-72
2024/04/05 02:14:25;;;;;;;2.50;1.70;;;;;;;16.24;63.54;97350.44;5035295;28;20199;-73
2024/04/05 02:16:50;;;;;;;2.43;1.80;;;;;;;16.27;63.55;97352.69;5045280;28;20473;-71
2024/04/05 02:19:16;;;;;;;2.53;1.97;;;;;;;16.27;63.60;97353.50;5032799;28;20876;-72
2024/04/05 02:21:42;;;;;;;2.80;1.67;;;;;;;16.30;63.44;97365.53;5029804;28;20192;-72
2024/04/05 02:24:07;;;;;;;4.77;2.03;;;;;;;16.33;63.29;97366.97;5038638;28;20234;-72
2024/04/05 02:26:33;;;;;;;3.30;2.40;;;;;;;16.29;63.05;97363.91;5033276;28;20460;-71
2024/04/05 02:28:58;;;;;;;5.53;1.90;;;;;;;16.28;62.92;97362.25;5030905;28;20673;-71
2024/04/05 02:31:24;;;;;;;3.20;1.90;;;;;;;16.27;63.26;97360.59;5041674;28;20410;-71
2024/04/05 02:33:49;;;;;;;3.80;2.00;;;;;;;16.29;63.10;97361.25;5027758;28;20199;-71
2024/04/05 02:36:15;;;;;;;4.30;1.83;;;;;;;16.31;62.86;97364.53;5024818;28;20211;-73
2024/04/05 02:38:40;;;;;;;4.30;2.20;;;;;;;16.33;62.78;97359.06;5031721;28;20250;-71
2024/04/05 02:41:07;;;;;;;2.80;1.90;;;;;;;16.30;62.72;97360.25;5034448;28;20744;-71
2024/04/05 02:43:33;;;;;;;5.53;1.80;;;;;;;16.28;62.83;97365.72;5027261;28;20203;-72
2024/04/05 02:45:59;;;;;;;6.60;2.17;;;;;;;16.27;62.57;97358.81;5038251;28;20425;-72
2024/04/05 02:48:25;;;;;;;6.70;1.77;;;;;;;16.25;62.80;97367.94;5031234;28;20422;-72
2024/04/05 02:50:50;;;;;;;6.23;1.70;;;;;;;16.31;62.51;97374.31;5037373;28;20207;-71
2024/04/05 02:53:16;;;;;;;5.43;2.20;;;;;;;16.34;62.49;97380.03;5029776;28;21740;-71
2024/04/05 02:55:41;;;;;;;1.93;1.83;;;;;;;16.32;62.34;97374.13;5045317;28;20179;-71
2024/04/05 02:58:06;;;;;;;5.23;2.40;;;;;;;16.30;62.42;97370.81;5019296;28;20220;-72
2024/04/05 03:00:36;;;;;;;3.10;1.83;;;;;;;16.24;62.32;97376.88;5022771;28;20254;-73
2024/04/05 03:03:01;;;;;;;4.80;2.30;;;;;;;16.26;62.41;97370.38;5027318;28;20226;-70
2024/04/05 03:05:27;;;;;;;3.23;1.87;;;;;;;16.26;62.35;97366.91;5030241;28;20865;-71
2024/04/05 03:07:53;;;;;;;3.60;2.07;;;;;;;16.20;62.47;97363.16;5023210;28;20184;-71
2024/04/05 03:10:18;;;;;;;3.50;2.07;;;;;;;16.18;62.00;97374.94;5029732;28;20258;-72
2024/04/05 03:12:43;;;;;;;7.30;2.10;;;;;;;16.13;62.53;97378.16;5031848;28;20684;-73
2024/04/05 03:15:09;;;;;;;3.97;2.53;;;;;;;16.15;62.46;97370.84;5035635;28;20233;-73
2024/04/05 03:17:35;;;;;;;4.33;2.23;;;;;;;16.17;62.47;97373.31;5027052;28;20212;-71
2024/04/05 03:20:00;;;;;;;7.00;2.90;;;;;;;16.13;62.52;97368.38;5031111;28;20473;-72
2024/04/05 03:22:27;;;;;;;4.27;2.80;;;;;;;16.12;62.71;97379.97;5027708;28;20188;-71
2024/04/05 03:24:53;;;;;;;9.80;2.80;;;;;;;16.20;62.46;97362.38;5029885;28;20184;-72
2024/04/05 03:27:18;;;;;;;2.23;1.90;;;;;;;16.20;62.12;97362.38;5029639;28;20429;-72
2024/04/05 03:29:43;;;;;;;3.97;2.10;;;;;;;16.20;61.99;97367.66;5030763;28;20314;-74
2024/04/05 03:32:09;;;;;;;3.83;2.47;;;;;;;16.18;62.25;97367.00;5030230;28;20184;-72
2024/04/05 03:34:35;;;;;;;6.53;2.40;;;;;;;16.17;62.15;97374.13;5032591;28;20274;-70
2024/04/05 03:37:00;;;;;;;5.90;2.30;;;;;;;16.18;62.33;97367.00;5029603;28;20668;-69
2024/04/05 03:39:26;;;;;;;3.77;2.40;;;;;;;16.20;62.29;97362.38;5033018;28;20239;-72
2024/04/05 03:41:51;;;;;;;7.20;2.30;;;;;;;16.23;62.19;97364.66;5031322;28;20210;-72
2024/04/05 03:44:16;;;;;;;8.50;2.07;;;;;;;16.23;62.31;97362.00;5028175;28;20955;-71
2024/04/05 03:46:43;;;;;;;3.97;2.10;;;;;;;16.24;62.17;97361.81;5033203;28;20262;-72
2024/04/05 03:49:08;;;;;;;5.17;2.40;;;;;;;16.24;62.10;97353.06;5031956;28;20748;-73
2024/04/05 03:51:34;;;;;;;5.47;1.77;;;;;;;16.20;62.28;97357.06;5035072;28;20438;-72
2024/04/05 03:53:59;;;;;;;5.87;2.20;;;;;;;16.15;62.39;97352.34;5026575;28;20216;-70
2024/04/05 03:56:25;;;;;;;3.30;3.00;;;;;;;16.12;62.75;97342.97;5028954;28;20195;-74
2024/04/05 03:58:53;;;;;;;4.20;2.00;;;;;;;16.13;62.68;97347.22;5031847;28;20207;-72
2024/04/05 04:01:18;;;;;;;2.90;1.97;;;;;;;16.15;62.72;97356.78;5030831;28;20278;-72
2024/04/05 04:03:44;;;;;;;7.57;2.57;;;;;;;16.17;62.74;97358.28;5030492;28;20923;-73
2024/04/05 04:06:10;;;;;;;6.90;2.40;;;;;;;16.15;62.57;97365.56;5022886;28;20183;-73
2024/04/05 04:08:36;;;;;;;10.43;4.93;;;;;;;16.15;62.62;97364.72;5009459;28;20222;-73
2024/04/05 04:11:02;;;;;;;6.40;2.20;;;;;;;16.15;62.53;97370.00;5028965;28;20249;-70
2024/04/05 04:13:28;;;;;;;4.00;2.23;;;;;;;16.18;62.24;97375.78;5030627;28;20442;-74
2024/04/05 04:15:53;;;;;;;9.13;2.30;;;;;;;16.18;62.33;97375.78;5030071;28;20770;-73
2024/04/05 04:18:19;;;;;;;3.73;2.30;;;;;;;16.19;62.17;97377.41;5035361;28;20264;-70
2024/04/05 04:20:45;;;;;;;6.23;2.40;;;;;;;16.21;62.10;97374.59;5035063;28;20215;-70
2024/04/05 04:23:10;;;;;;;5.07;2.63;;;;;;;16.22;61.89;97371.75;5035439;28;20180;-72
2024/04/05 04:25:36;;;;;;;2.40;2.20;;;;;;;16.15;61.87;97375.31;5026727;28;20562;-71
2024/04/05 04:28:01;;;;;;;4.33;2.70;;;;;;;16.11;62.24;97378.34;5028266;28;20196;-70
2024/04/05 04:30:29;;;;;;;2.77;2.30;;;;;;;16.16;62.31;97369.84;5020809;28;20235;-72
2024/04/05 04:32:54;;;;;;;8.90;2.30;;;;;;;16.15;62.36;97370.00;5028012;28;20187;-73
2024/04/05 04:35:20;;;;;;;3.00;2.27;;;;;;;16.15;62.47;97370.00;5029258;28;20492;-72
2024/04/05 04:37:45;;;;;;;7.10;2.67;;;;;;;16.14;62.44;97369.22;5026870;28;20286;-73
2024/04/05 04:40:11;;;;;;;7.23;2.70;;;;;;;16.13;62.75;97371.03;5029770;28;20278;-75
2024/04/05 04:42:38;;;;;;;4.30;2.33;;;;;;;16.17;62.34;97371.50;5022227;28;20664;-72
2024/04/05 04:45:05;;;;;;;8.93;2.60;;;;;;;16.16;62.38;97369.84;5021686;28;20314;-71
2024/04/05 04:47:33;;;;;;;5.90;2.47;;;;;;;16.15;62.31;97372.66;5030567;28;20433;-71
2024/04/05 04:49:59;;;;;;;6.97;2.73;;;;;;;16.05;62.57;97371.13;5035599;28;20442;-71
2024/04/05 04:52:24;;;;;;;6.60;2.93;;;;;;;16.02;62.95;97370.69;5031078;28;20438;-69
2024/04/05 04:54:53;;;;;;;4.83;3.23;;;;;;;16.02;62.71;97366.19;5037381;28;20183;-73
2024/04/05 04:57:19;;;;;;;6.30;3.30;;;;;;;16.01;62.89;97372.47;5020212;28;20215;-72
2024/04/05 04:59:44;;;;;;;4.00;3.20;;;;;;;15.96;62.94;97377.50;5030004;28;20446;-74
2024/04/05 05:02:10;;;;;;;3.87;3.57;;;;;;;15.94;62.99;97382.16;5035942;28;20217;-74
2024/04/05 05:04:35;;;;;;;6.53;3.53;;;;;;;15.91;63.17;97380.72;5028721;28;20196;-71
2024/04/05 05:07:02;;;;;;;5.43;3.20;;;;;;;15.95;63.17;97375.88;5026310;28;20179;-72
2024/04/05 05:09:27;;;;;;;4.53;2.83;;;;;;;15.94;62.98;97374.22;5031037;28;20203;-70
2024/04/05 05:11:53;;;;;;;7.30;3.03;;;;;;;15.88;63.06;97375.78;5035922;28;20425;-70
2024/04/05 05:14:18;;;;;;;9.23;2.90;;;;;;;15.90;62.92;97378.22;5019651;28;20704;-72
2024/04/05 05:16:44;;;;;;;9.00;2.70;;;;;;;15.93;62.93;97380.53;5037659;28;20270;-71
2024/04/05 05:19:09;;;;;;;3.33;2.40;;;;;;;15.91;62.85;97385.16;5030025;28;20299;-72
2024/04/05 05:21:35;;;;;;;5.97;3.30;;;;;;;15.80;62.87;97389.06;5028181;28;20343;-72
2024/04/05 05:24:01;;;;;;;4.10;2.70;;;;;;;15.77;63.13;97399.97;5021185;28;20186;-72
2024/04/05 05:26:26;;;;;;;5.87;3.47;;;;;;;15.82;63.23;97402.88;5031805;28;20431;-71
2024/04/05 05:28:52;;;;;;;3.53;2.70;;;;;;;15.79;62.93;97393.50;5028805;28;20257;-71
2024/04/05 05:31:17;;;;;;;7.70;3.10;;;;;;;15.72;63.07;97387.31;5027791;28;20186;-72
2024/04/05 05:33:43;;;;;;;5.43;2.93;;;;;;;15.76;63.11;97383.28;5021847;28;20195;-72
2024/04/05 05:36:08;;;;;;;6.97;3.10;;;;;;;15.72;63.19;97392.59;5028963;28;20180;-71
2024/04/05 05:38:34;;;;;;;4.50;2.83;;;;;;;15.73;63.29;97391.59;5029153;28;20204;-71
2024/04/05 05:40:59;;;;;;;7.10;3.43;;;;;;;15.71;63.28;97390.97;5032550;28;20223;-72
2024/04/05 05:43:24;;;;;;;8.40;3.43;;;;;;;15.75;63.22;97379.00;5041488;28;20221;-72
2024/04/05 05:45:50;;;;;;;5.70;3.13;;;;;;;15.80;63.32;97374.00;5022032;28;20207;-73
2024/04/05 05:48:15;;;;;;;7.50;3.00;;;;;;;15.89;63.02;97366.00;5029010;28;20715;-71
2024/04/05 05:50:42;;;;;;;4.73;3.10;;;;;;;15.92;63.00;97363.84;5031074;28;20584;-71
2024/04/05 05:53:07;;;;;;;4.60;3.20;;;;;;;15.99;63.27;97358.66;5018634;28;20647;-71
2024/04/05 05:55:33;;;;;;;4.27;3.20;;;;;;;16.08;62.74;97357.56;5032038;28;20434;-72
2024/04/05 05:57:58;;;;;;;6.37;3.17;;;;;;;16.18;62.99;97364.38;5035758;28;20862;-73
2024/04/05 06:00:24;;;;;;;5.00;3.47;;;;;;;16.29;63.02;97366.53;5025832;28;20350;-71
2024/04/05 06:02:50;;;;;;;6.50;3.33;;;;;;;16.42;62.56;97361.41;5024956;28;20846;-71
2024/04/05 06:05:19;;;;;;;4.40;3.07;;;;;;;16.58;62.53;97359.56;5011013;28;20564;-72
2024/04/05 06:07:45;;;;;;;4.43;3.07;;;;;;;16.78;62.50;97364.22;5029048;28;20259;-75
2024/04/05 06:10:10;;;;;;;7.53;4.23;;;;;;;16.91;62.16;97367.00;5041288;28;20507;-72
2024/04/05 06:12:39;;;;;;;5.70;3.60;;;;;;;17.02;61.73;97382.41;5027623;28;20647;-71
2024/04/05 06:15:04;;;;;;;5.40;3.20;;;;;;;17.13;61.55;97393.53;5033917;28;20190;-71
2024/04/05 06:17:34;;;;;;;16.07;3.20;;;;;;;17.16;60.38;97387.84;5031137;28;20446;-72
2024/04/05 06:19:59;;;;;;;8.53;2.30;;;;;;;17.23;59.54;97388.72;5033028;28;20904;-73
2024/04/05 06:22:26;;;;;;;6.23;2.10;;;;;;;17.27;59.36;97384.66;5033306;28;20510;-72
2024/04/05 06:24:52;;;;;;;5.60;2.43;;;;;;;17.31;58.52;97391.25;5029499;28;20660;-72
2024/04/05 06:27:20;;;;;;;3.17;1.60;;;;;;;17.41;58.19;97390.09;5029195;28;20493;-73
2024/04/05 06:29:55;;;;;;;6.13;2.10;;;;;;;17.49;57.56;97384.66;5010163;28;20447;-73
2024/04/05 06:32:21;;;;;;;1.93;1.77;;;;;;;17.65;56.89;97392.31;5024284;28;20434;-73
2024/04/05 06:34:47;;;;;;;3.57;2.13;;;;;;;17.85;56.88;97396.94;5017828;28;20808;-73
2024/04/05 06:37:13;;;;;;;6.20;1.50;;;;;;;18.10;56.46;97391.19;5016861;28;20460;-73
2024/04/05 06:39:40;;;;;;;3.00;1.57;;;;;;;18.40;55.96;97382.94;5026781;28;20204;-73
2024/04/05 06:42:09;;;;;;;4.70;2.13;;;;;;;18.57;55.05;97384.25;5032644;28;20990;-71
2024/04/05 06:44:35;;;;;;;5.37;1.77;;;;;;;18.70;54.26;97372.03;5036629;28;20426;-75
2024/04/05 06:47:07;;;;;;;5.93;2.00;;;;;;;18.80;54.25;97366.34;5041993;28;21033;-73
2024/04/05 06:49:33;;;;;;;6.20;2.30;;;;;;;19.02;53.98;97361.72;5039824;28;20445;-73
2024/04/05 06:52:06;;;;;;;2.67;1.50;;;;;;;19.08;52.65;97363.56;5046604;28;20438;-74
2024/04/05 06:54:32;;;;;;;6.10;2.00;;;;;;;18.98;52.27;97361.28;5032463;28;20816;-73
2024/04/05 06:56:58;;;;;;;4.93;1.60;;;;;;;19.10;52.14;97360.69;5028034;28;20493;-73
2024/04/05 06:59:23;;;;;;;4.20;1.97;;;;;;;18.84;52.00;97362.25;5040571;28;20477;-72
2024/04/05 07:01:52;;;;;;;5.77;1.90;;;;;;;18.87;52.77;97354.72;5036953;28;20646;-72
2024/04/05 07:04:23;;;;;;;4.07;1.60;;;;;;;18.94;53.02;97356.59;5029917;28;20183;-72
2024/04/05 07:06:49;;;;;;;4.80;1.60;;;;;;;19.05;53.10;97355.19;5036970;28;20422;-72
2024/04/05 07:09:15;;;;;;;3.20;1.77;;;;;;;19.00;53.08;97345.97;5026543;28;20535;-72
2024/04/05 07:11:40;;;;;;;3.10;1.93;;;;;;;19.11;52.90;97351.69;5037476;28;20521;-73
2024/04/05 07:14:07;;;;;;;3.77;2.00;;;;;;;19.13;52.05;97347.84;5031238;28;20731;-71
2024/04/05 07:16:32;;;;;;;8.80;2.23;;;;;;;19.27;52.45;97345.19;5038183;28;20652;-72
2024/04/05 07:18:57;;;;;;;5.87;1.97;;;;;;;19.32;52.48;97353.34;5028267;28;20450;-71
2024/04/05 07:21:24;;;;;;;5.80;1.73;;;;;;;19.45;52.32;97356.00;5031157;28;20236;-71
2024/04/05 07:23:51;;;;;;;5.80;2.20;;;;;;;19.57;52.72;97360.69;5029822;28;20683;-71
2024/04/05 07:26:16;;;;;;;4.00;1.70;;;;;;;19.61;52.21;97362.72;5031704;28;21040;-72
2024/04/05 07:28:42;;;;;;;2.97;1.80;;;;;;;19.67;52.41;97371.72;5024008;28;20419;-71
2024/04/05 07:31:07;;;;;;;5.17;2.10;;;;;;;19.68;51.56;97367.22;5042548;28;20249;-71
2024/04/05 07:33:33;;;;;;;2.27;1.70;;;;;;;19.76;51.05;97365.19;5030982;28;20215;-71
2024/04/05 07:35:58;;;;;;;4.77;1.90;;;;;;;19.79;51.07;97353.31;5036373;28;20207;-71
2024/04/05 07:38:25;;;;;;;4.53;1.93;;;;;;;19.87;50.84;97354.97;5031325;28;20203;-70
2024/04/05 07:40:51;;;;;;;3.00;1.70;;;;;;;19.96;50.87;97353.69;5023720;28;20507;-71
2024/04/05 07:43:16;;;;;;;1.83;1.33;;;;;;;20.10;50.77;97351.81;5030835;28;20427;-71
2024/04/05 07:45:42;;;;;;;2.90;1.73;;;;;;;20.02;50.49;97358.19;5026106;28;20188;-71
2024/04/05 07:48:08;;;;;;;3.83;1.80;;;;;;;20.13;50.43;97345.25;5027002;28;20176;-70
2024/04/05 07:50:33;;;;;;;6.37;1.83;;;;;;;20.32;50.08;97336.38;5016902;28;20212;-71
2024/04/05 07:53:00;;;;;;;4.10;1.53;;;;;;;20.38;49.06;97340.03;5038164;28;20422;-70
2024/04/05 07:55:25;;;;;;;3.77;1.60;;;;;;;20.51;48.60;97352.47;5027626;28;20179;-73
2024/04/05 07:57:51;;;;;;;4.63;1.63;;;;;;;20.72;48.25;97349.47;5037393;28;20454;-73
2024/04/05 08:00:20;;;;;;;3.57;1.57;;;;;;;20.96;48.11;97346.31;5039311;28;20199;-71
2024/04/05 08:02:52;;;;;;;3.93;1.47;;;;;;;21.16;47.14;97356.81;5034235;28;20314;-71
2024/04/05 08:05:18;;;;;;;3.20;1.50;;;;;;;21.41;46.32;97353.34;5034756;28;20841;-71
2024/04/05 08:07:44;;;;;;;2.07;1.27;;;;;;;21.55;46.40;97357.50;5042769;28;20426;-71
2024/04/05 08:10:09;;;;;;;4.50;1.70;;;;;;;21.56;45.26;97353.78;5032416;28;20199;-71
2024/04/05 08:12:39;;;;;;;2.30;1.30;;;;;;;21.67;45.34;97346.97;5032368;28;20196;-70
2024/04/05 08:15:06;;;;;;;2.47;1.50;;;;;;;21.84;44.17;97347.19;5029446;28;20179;-73
2024/04/05 08:17:31;;;;;;;7.10;1.50;;;;;;;21.71;44.00;97342.00;5028718;28;20831;-70
2024/04/05 08:19:57;;;;;;;4.47;1.60;;;;;;;21.79;43.42;97345.19;5035134;28;20472;-71
2024/04/05 08:22:22;;;;;;;3.13;1.70;;;;;;;22.03;43.34;97350.69;5026835;28;20714;-71
2024/04/05 08:24:48;;;;;;;3.53;1.50;;;;;;;22.20;43.09;97340.22;5044408;28;20179;-72
2024/04/05 08:27:13;;;;;;;4.07;1.40;;;;;;;22.47;43.20;97344.47;5035400;28;20610;-72
2024/04/05 08:29:40;;;;;;;3.93;1.63;;;;;;;22.57;43.43;97346.56;5035575;28;20234;-70
2024/04/05 08:32:06;;;;;;;3.27;1.50;;;;;;;22.50;43.89;97339.47;5041060;28;20183;-72
2024/04/05 08:34:31;;;;;;;8.13;1.53;;;;;;;22.77;43.30;97347.13;5031078;28;20422;-70
2024/04/05 08:36:59;;;;;;;3.93;1.60;;;;;;;22.85;42.39;97354.81;5030799;28;20708;-71
2024/04/05 08:39:24;;;;;;;4.13;1.67;;;;;;;22.79;42.61;97350.41;5019044;28;20204;-70
2024/04/05 08:41:50;;;;;;;9.97;1.60;;;;;;;22.85;42.57;97340.66;5028317;28;20461;-71
2024/04/05 08:44:16;;;;;;;4.40;1.60;;;;;;;23.10;42.12;97331.66;5032909;28;20216;-70
2024/04/05 08:46:43;;;;;;;4.50;1.60;;;;;;;23.35;41.75;97331.44;5023512;28;20751;-71
2024/04/05 08:49:10;;;;;;;2.70;1.60;;;;;;;23.23;41.26;97330.63;5037371;28;20507;-70
2024/04/05 08:51:37;;;;;;;6.03;1.60;;;;;;;23.35;41.30;97322.63;5028309;28;20422;-70
2024/04/05 08:54:03;;;;;;;9.47;1.57;;;;;;;23.37;40.86;97324.03;5028376;28;20947;-72
2024/04/05 08:56:29;;;;;;;5.30;1.47;;;;;;;23.68;41.52;97321.22;5026595;28;20573;-69
2024/04/05 08:58:54;;;;;;;4.87;1.50;;;;;;;24.00;40.81;97332.38;5023672;28;20554;-69
2024/04/05 09:01:20;;;;;;;5.50;1.40;;;;;;;24.35;40.17;97323.41;5023270;28;20326;-71
2024/04/05 09:03:48;;;;;;;2.37;1.20;;;;;;;24.54;37.92;97333.97;5027290;28;20569;-68
2024/04/05 09:06:14;;;;;;;7.47;2.00;;;;;;;24.59;37.31;97334.03;5019690;28;20180;-70
2024/04/05 09:08:48;;;;;;;2.43;1.33;;;;;;;24.40;37.28;97322.72;5032354;28;20426;-70
2024/04/05 09:11:22;;;;;;;2.30;1.20;;;;;;;24.62;37.01;97322.84;5038019;28;20421;-70
2024/04/05 09:13:58;;;;;;;2.13;1.33;;;;;;;24.12;37.25;97320.81;5030116;28;20443;-70
2024/04/05 09:16:25;;;;;;;6.83;1.57;;;;;;;24.11;37.41;97320.03;5056875;28;20505;-71
2024/04/05 09:18:51;;;;;;;4.40;1.40;;;;;;;24.02;38.17;97316.06;5052231;28;20480;-72
2024/04/05 09:21:19;;;;;;;1.97;1.10;;;;;;;24.69;38.00;97310.16;5057223;28;20454;-70
2024/04/05 09:23:46;;;;;;;3.90;1.60;;;;;;;24.38;37.25;97312.25;5057773;28;20207;-70
2024/04/05 09:26:18;;;;;;;3.73;1.43;;;;;;;24.71;36.93;97317.97;5042472;28;20426;-70
2024/04/05 09:28:46;;;;;;;2.40;1.23;;;;;;;25.07;36.67;97315.88;5040111;28;20407;-71
2024/04/05 09:31:17;;;;;;;2.93;1.27;;;;;;;25.36;36.07;97306.91;5032654;28;20460;-71
2024/04/05 09:33:43;;;;;;;2.30;1.30;;;;;;;25.64;36.16;97308.72;5027679;28;20430;-71
2024/04/05 09:36:11;;;;;;;3.70;1.40;;;;;;;25.35;36.09;97306.13;5037780;28;20453;-72
2024/04/05 09:38:36;;;;;;;4.70;1.20;;;;;;;25.32;35.71;97298.56;5033026;28;20638;-72
2024/04/05 09:41:03;;;;;;;7.80;1.00;;;;;;;25.10;35.76;97303.84;5033782;28;20426;-72
2024/04/05 09:43:29;;;;;;;2.87;1.00;;;;;;;25.27;35.70;97307.34;5025076;28;20186;-72
2024/04/05 09:45:54;;;;;;;2.30;1.10;;;;;;;25.72;35.87;97294.03;5033579;28;20430;-71
2024/04/05 09:48:21;;;;;;;2.33;1.43;;;;;;;25.92;35.22;97293.50;5037468;28;20238;-72
2024/04/05 09:50:48;;;;;;;3.80;1.00;;;;;;;26.07;34.82;97295.56;5030367;28;20222;-72
2024/04/05 09:53:14;;;;;;;7.43;1.23;;;;;;;25.89;33.62;97283.28;5032267;28;20445;-71
2024/04/05 09:55:40;;;;;;;4.00;1.40;;;;;;;26.21;33.77;97288.75;5020426;28;20430;-71
2024/04/05 09:58:06;;;;;;;3.00;1.10;;;;;;;25.84;33.51;97292.03;5028438;28;20200;-72
2024/04/05 10:00:32;;;;;;;3.33;1.20;;;;;;;26.26;33.29;97290.72;5027801;28;20820;-71
2024/04/05 10:02:58;;;;;;;4.50;1.00;;;;;;;26.30;32.30;97285.66;5028626;28;20437;-72
2024/04/05 10:05:28;;;;;;;3.50;1.17;;;;;;;26.92;32.85;97283.56;5028451;28;20434;-72
2024/04/05 10:07:54;;;;;;;2.43;1.20;;;;;;;27.13;30.85;97277.25;5025759;28;20429;-72
2024/04/05 10:10:32;;;;;;;4.97;1.63;;;;;;;27.48;30.23;97277.78;5024758;28;20442;-72
2024/04/05 10:13:12;;;;;;;2.90;1.40;;;;;;;27.52;30.13;97288.84;5033073;28;20195;-72
2024/04/05 10:15:37;;;;;;;1.90;1.00;;;;;;;27.52;29.85;97261.94;5033755;28;20505;-72
2024/04/05 10:18:06;;;;;;;3.53;1.27;;;;;;;27.50;29.67;97258.69;5023777;28;20557;-73
2024/04/05 10:20:34;;;;;;;6.37;1.40;;;;;;;27.90;30.16;97251.88;5014162;28;20235;-71
2024/04/05 10:23:00;;;;;;;1.93;1.10;;;;;;;27.54;28.37;97247.13;5031217;28;20433;-71
2024/04/05 10:25:25;;;;;;;2.40;0.90;;;;;;;27.34;28.37;97247.84;5031140;28;20513;-71
2024/04/05 10:27:55;;;;;;;2.97;1.00;;;;;;;27.59;28.36;97238.31;5031807;28;20468;-72
2024/04/05 10:30:23;;;;;;;2.60;0.93;;;;;;;27.66;28.81;97255.00;5033731;28;20231;-72
2024/04/05 10:32:57;;;;;;;2.33;1.10;;;;;;;27.51;27.44;97244.16;5037490;28;20516;-71
2024/04/05 10:35:23;;;;;;;2.53;0.90;;;;;;;27.29;27.29;97237.03;5031773;28;20477;-72
2024/04/05 10:37:59;;;;;;;3.73;1.23;;;;;;;27.70;27.60;97233.75;5038300;28;20464;-71
2024/04/05 10:40:25;;;;;;;1.10;0.80;;;;;;;27.59;27.20;97228.34;5030945;28;20218;-71
2024/04/05 10:42:50;;;;;;;1.60;0.90;;;;;;;27.67;27.20;97218.94;5025037;28;20450;-71
2024/04/05 10:45:17;;;;;;;1.93;0.93;;;;;;;27.47;26.97;97219.66;5035990;28;20418;-71
2024/04/05 10:47:54;;;;;;;2.30;1.20;;;;;;;27.50;27.49;97219.16;5044076;28;20205;-72
2024/04/05 10:50:21;;;;;;;2.80;0.83;;;;;;;26.99;28.04;97214.25;5034257;28;20528;-72
2024/04/05 10:52:53;;;;;;;4.60;0.97;;;;;;;27.18;27.80;97209.25;5031351;28;20430;-71
2024/04/05 10:55:19;;;;;;;2.50;1.10;;;;;;;27.02;27.65;97213.72;5030374;28;20903;-73
2024/04/05 10:57:45;;;;;;;1.67;0.87;;;;;;;27.08;27.72;97210.03;5029689;28;20833;-72
2024/04/05 11:00:11;;;;;;;1.30;0.90;;;;;;;26.90;28.20;97207.72;5030680;28;20450;-71
2024/04/05 11:02:47;;;;;;;2.30;1.00;;;;;;;27.05;28.23;97199.78;5035863;28;20724;-71
2024/04/05 11:05:13;;;;;;;8.57;1.00;;;;;;;26.97;28.30;97202.94;5038369;28;21065;-72
2024/04/05 11:07:46;;;;;;;2.43;1.00;;;;;;;27.37;28.10;97219.59;5030855;28;20497;-71
2024/04/05 11:10:19;;;;;;;2.70;1.07;;;;;;;27.47;27.69;97210.81;5030747;28;20989;-70
2024/04/05 11:12:48;;;;;;;2.30;1.20;;;;;;;27.10;28.19;97210.53;5038648;28;20445;-73
2024/04/05 11:15:21;;;;;;;5.63;1.13;;;;;;;27.27;27.53;97207.72;5033188;28;20444;-72
2024/04/05 11:17:57;;;;;;;3.40;1.30;;;;;;;27.28;27.43;97213.88;5042122;28;21009;-72
2024/04/05 11:20:22;;;;;;;1.60;0.83;;;;;;;27.25;27.10;97206.34;5035118;28;20450;-73
2024/04/05 11:22:54;;;;;;;1.40;0.90;;;;;;;27.12;27.39;97216.47;5040333;28;20992;-71
2024/04/05 11:25:23;;;;;;;2.87;0.87;;;;;;;27.08;27.35;97223.47;5023712;28;20183;-73
2024/04/05 11:27:48;;;;;;;2.00;1.00;;;;;;;27.13;26.81;97222.69;5025744;28;20423;-72
2024/04/05 11:30:14;;;;;;;2.70;0.93;;;;;;;27.01;27.27;97214.78;5031167;28;20495;-73
2024/04/05 11:32:41;;;;;;;2.60;0.90;;;;;;;26.98;27.54;97212.63;5030605;28;20192;-72